createdAt,value
2023-05-09T00:01:12.776Z,14.20
2023-05-09T00:03:39.845Z,12.95
2023-05-09T00:06:07.252Z,13.13
2023-05-09T00:08:33.738Z,12.57
2023-05-09T00:11:01.712Z,12.45
2023-05-09T00:13:28.445Z,12.05
2023-05-09T00:15:54.917Z,11.45
2023-05-09T00:18:22.144Z,11.05
2023-05-09T00:20:51.518Z,12.27
2023-05-09T00:23:18.017Z,11.15
2023-05-09T00:25:44.573Z,10.73
2023-05-09T00:28:11.225Z,10.70
2023-05-09T00:30:37.792Z,10.50
2023-05-09T00:33:04.364Z,10.93
2023-05-09T00:35:32.270Z,10.68
2023-05-09T00:37:59.441Z,11.77
2023-05-09T00:40:26.047Z,11.13
2023-05-09T00:42:52.620Z,11.82
2023-05-09T00:45:20.259Z,11.52
2023-05-09T00:47:46.832Z,12.30
2023-05-09T00:50:13.814Z,12.15
2023-05-09T00:52:40.997Z,11.82
2023-05-09T00:55:08.493Z,12.48
2023-05-09T00:57:35.084Z,12.33
2023-05-09T01:00:01.882Z,11.27
2023-05-09T01:02:28.664Z,11.02
2023-05-09T01:04:55.970Z,11.07
2023-05-09T01:07:35.142Z,10.10
2023-05-09T01:10:28.746Z,11.10
2023-05-09T01:13:05.056Z,10.05
2023-05-09T01:15:39.277Z,9.55
2023-05-09T01:18:17.712Z,10.48
2023-05-09T01:21:01.767Z,10.60
2023-05-09T01:23:49.916Z,10.82
2023-05-09T01:26:32.059Z,10.27
2023-05-09T01:29:26.889Z,10.15
2023-05-09T01:31:56.042Z,10.35
2023-05-09T01:34:26.720Z,10.37
2023-05-09T01:36:58.473Z,10.05
2023-05-09T01:39:26.901Z,10.40
2023-05-09T01:41:56.617Z,10.75
2023-05-09T01:44:25.470Z,9.95
2023-05-09T01:46:54.731Z,9.73
2023-05-09T01:49:22.671Z,10.10
2023-05-09T01:51:50.548Z,11.03
2023-05-09T01:54:18.502Z,10.63
2023-05-09T01:56:45.985Z,10.87
2023-05-09T01:59:16.096Z,10.10
2023-05-09T02:01:44.523Z,10.30
2023-05-09T02:04:12.747Z,10.68
2023-05-09T02:06:40.244Z,10.03
2023-05-09T02:09:06.989Z,11.00
2023-05-09T02:11:33.460Z,9.95
2023-05-09T02:13:59.934Z,9.87
2023-05-09T02:16:27.781Z,11.05
2023-05-09T02:18:54.205Z,10.02
2023-05-09T02:21:21.493Z,10.75
2023-05-09T02:23:48.229Z,12.10
2023-05-09T02:26:14.788Z,11.57
2023-05-09T02:28:44.119Z,11.50
2023-05-09T02:31:13.917Z,11.38
2023-05-09T02:33:42.786Z,10.95
2023-05-09T02:36:10.253Z,10.63
2023-05-09T02:38:36.940Z,10.98
2023-05-09T02:41:03.435Z,10.20
2023-05-09T02:43:29.847Z,10.45
2023-05-09T02:45:56.393Z,10.27
2023-05-09T02:48:23.240Z,10.25
2023-05-09T02:50:49.689Z,9.85
2023-05-09T02:53:16.307Z,10.00
2023-05-09T02:55:43.776Z,10.05
2023-05-09T02:58:14.531Z,10.77
2023-05-09T03:00:43.406Z,10.20
2023-05-09T03:03:11.258Z,10.55
2023-05-09T03:05:37.991Z,10.25
2023-05-09T03:08:05.060Z,10.98
2023-05-09T03:10:33.416Z,11.30
2023-05-09T03:12:59.965Z,10.98
2023-05-09T03:15:27.206Z,10.93
2023-05-09T03:17:54.092Z,9.63
2023-05-09T03:20:21.940Z,9.95
2023-05-09T03:22:49.250Z,9.68
2023-05-09T03:25:16.807Z,9.15
2023-05-09T03:27:44.383Z,8.73
2023-05-09T03:30:14.587Z,9.60
2023-05-09T03:32:42.962Z,8.77
2023-05-09T03:35:09.451Z,8.65
2023-05-09T03:37:35.956Z,8.43
2023-05-09T03:40:02.711Z,7.82
2023-05-09T03:42:32.629Z,8.93
2023-05-09T03:45:01.719Z,8.45
2023-05-09T03:47:28.914Z,8.85
2023-05-09T03:49:55.671Z,8.63
2023-05-09T03:52:23.015Z,9.13
2023-05-09T03:54:49.480Z,8.52
2023-05-09T03:57:16.288Z,8.57
2023-05-09T03:59:43.347Z,8.60
2023-05-09T04:02:11.750Z,8.60
2023-05-09T04:04:38.890Z,8.23
2023-05-09T04:07:05.555Z,10.63
2023-05-09T04:09:32.132Z,11.95
2023-05-09T04:11:58.729Z,12.00
2023-05-09T04:14:25.469Z,10.87
2023-05-09T04:16:52.352Z,9.30
2023-05-09T04:19:20.196Z,9.35
2023-05-09T04:21:46.711Z,8.63
2023-05-09T04:24:14.705Z,9.02
2023-05-09T04:26:43.805Z,8.50
2023-05-09T04:29:14.029Z,8.88
2023-05-09T04:31:41.274Z,8.82
2023-05-09T04:34:10.108Z,8.52
2023-05-09T04:36:38.086Z,8.90
2023-05-09T04:39:08.236Z,9.70
2023-05-09T04:41:35.770Z,8.70
2023-05-09T04:44:03.264Z,10.25
2023-05-09T04:46:30.644Z,9.60
2023-05-09T04:48:57.533Z,9.97
2023-05-09T04:51:24.029Z,9.88
2023-05-09T04:53:50.908Z,10.05
2023-05-09T04:56:19.444Z,9.68
2023-05-09T04:58:47.621Z,9.52
2023-05-09T05:01:16.610Z,9.47
2023-05-09T05:03:43.247Z,9.73
2023-05-09T05:06:09.790Z,10.80
2023-05-09T05:08:37.792Z,10.03
2023-05-09T05:11:04.390Z,10.17
2023-05-09T05:13:30.972Z,10.60
2023-05-09T05:16:00.324Z,9.15
2023-05-09T05:18:26.922Z,9.40
2023-05-09T05:20:53.992Z,10.07
2023-05-09T05:23:21.196Z,9.90
2023-05-09T05:25:50.078Z,9.25
2023-05-09T05:28:16.943Z,8.90
2023-05-09T05:30:43.914Z,8.50
2023-05-09T05:33:11.077Z,9.10
2023-05-09T05:35:38.319Z,8.50
2023-05-09T05:38:04.911Z,8.80
2023-05-09T05:40:31.397Z,8.63
2023-05-09T05:43:01.616Z,8.80
2023-05-09T05:45:30.216Z,8.90
2023-05-09T05:47:57.826Z,9.27
2023-05-09T05:50:24.487Z,9.50
2023-05-09T05:52:50.955Z,8.57
2023-05-09T05:55:18.759Z,8.65
2023-05-09T05:57:45.774Z,9.02
2023-05-09T06:00:15.119Z,8.93
2023-05-09T06:02:47.904Z,9.27
2023-05-09T06:05:21.815Z,9.27
2023-05-09T06:07:48.333Z,8.70
2023-05-09T06:10:17.017Z,9.57
2023-05-09T06:12:45.411Z,9.20
2023-05-09T06:15:12.486Z,9.57
2023-05-09T06:17:42.404Z,10.40
2023-05-09T06:20:09.165Z,9.10
2023-05-09T06:22:35.610Z,9.35
2023-05-09T06:25:02.234Z,9.32
2023-05-09T06:27:28.942Z,9.30
2023-05-09T06:29:55.412Z,9.23
2023-05-09T06:32:21.852Z,9.10
2023-05-09T06:34:48.370Z,10.27
2023-05-09T06:37:14.818Z,10.35
2023-05-09T06:39:41.444Z,10.30
2023-05-09T06:42:07.899Z,10.05
2023-05-09T06:44:38.108Z,9.68
2023-05-09T06:47:04.540Z,9.98
2023-05-09T06:49:31.013Z,9.75
2023-05-09T06:51:57.453Z,10.25
2023-05-09T06:54:24.008Z,10.02
2023-05-09T06:56:50.591Z,10.20
2023-05-09T06:59:17.179Z,10.73
2023-05-09T07:01:43.673Z,10.30
2023-05-09T07:04:10.896Z,10.73
2023-05-09T07:06:37.355Z,11.27
2023-05-09T07:09:04.285Z,10.50
2023-05-09T07:11:37.399Z,10.82
2023-05-09T07:14:04.186Z,10.88
2023-05-09T07:16:30.747Z,11.50
2023-05-09T07:18:57.295Z,12.15
2023-05-09T07:21:23.680Z,13.07
2023-05-09T07:23:50.080Z,13.55
2023-05-09T07:26:16.572Z,14.88
2023-05-09T07:28:43.107Z,13.95
2023-05-09T07:31:09.557Z,13.30
2023-05-09T07:33:36.124Z,13.27
2023-05-09T07:36:02.821Z,13.77
2023-05-09T07:38:29.319Z,13.45
2023-05-09T07:40:55.965Z,12.98
2023-05-09T07:43:22.420Z,12.68
2023-05-09T07:45:48.917Z,12.38
2023-05-09T07:48:15.529Z,12.75
2023-05-09T07:50:42.011Z,12.63
2023-05-09T07:53:08.423Z,10.93
2023-05-09T07:55:34.898Z,10.02
2023-05-09T07:58:01.332Z,10.05
2023-05-09T08:00:27.822Z,10.35
2023-05-09T08:02:54.434Z,9.57
2023-05-09T08:05:21.005Z,10.02
2023-05-09T08:07:47.483Z,9.38
2023-05-09T08:10:14.046Z,9.18
2023-05-09T08:12:40.591Z,9.45
2023-05-09T08:15:07.612Z,9.35
2023-05-09T08:17:34.131Z,9.30
2023-05-09T08:20:00.606Z,10.40
2023-05-09T08:22:27.133Z,8.60
2023-05-09T08:24:53.624Z,8.60
2023-05-09T08:27:20.005Z,8.63
2023-05-09T08:29:46.441Z,8.85
2023-05-09T08:32:12.992Z,8.68
2023-05-09T08:34:39.381Z,7.60
2023-05-09T08:37:05.773Z,7.00
2023-05-09T08:39:34.801Z,7.47
2023-05-09T08:42:02.256Z,6.82
2023-05-09T08:44:29.984Z,6.43
2023-05-09T08:46:59.519Z,6.50
2023-05-09T08:49:26.539Z,6.25
2023-05-09T08:51:53.229Z,7.10
2023-05-09T08:54:22.878Z,6.80
2023-05-09T08:56:50.622Z,6.82
2023-05-09T08:59:18.701Z,7.10
2023-05-09T09:01:45.592Z,6.28
2023-05-09T09:04:12.201Z,6.50
2023-05-09T09:06:40.042Z,6.60
2023-05-09T09:09:11.158Z,6.03
2023-05-09T09:11:38.882Z,4.30
2023-05-09T09:14:11.790Z,3.53
2023-05-09T09:16:38.887Z,3.38
2023-05-09T09:19:11.473Z,3.78
2023-05-09T09:21:39.293Z,3.65
2023-05-09T09:24:07.685Z,4.10
2023-05-09T09:26:34.082Z,3.97
2023-05-09T09:29:00.795Z,3.70
2023-05-09T09:31:31.480Z,3.83
2023-05-09T09:34:02.425Z,3.40
2023-05-09T09:36:32.418Z,3.20
2023-05-09T09:39:00.867Z,3.30
2023-05-09T09:41:38.134Z,3.33
2023-05-09T09:44:12.686Z,3.15
2023-05-09T09:46:48.328Z,3.10
2023-05-09T09:49:17.109Z,3.35
2023-05-09T09:51:44.476Z,3.30
2023-05-09T09:54:12.664Z,3.78
2023-05-09T09:56:49.626Z,3.47
2023-05-09T09:59:18.103Z,3.40
2023-05-09T10:02:07.548Z,3.50
2023-05-09T10:04:39.082Z,3.33
2023-05-09T10:07:07.649Z,3.50
2023-05-09T10:09:35.789Z,3.40
2023-05-09T10:12:04.681Z,3.50
2023-05-09T10:14:35.151Z,3.33
2023-05-09T10:17:04.091Z,3.80
2023-05-09T10:19:31.886Z,3.72
2023-05-09T10:22:04.912Z,3.20
2023-05-09T10:24:39.675Z,3.50
2023-05-09T10:27:10.086Z,3.20
2023-05-09T10:29:44.433Z,3.05
2023-05-09T10:32:27.486Z,3.17
2023-05-09T10:35:01.905Z,3.10
2023-05-09T10:37:28.678Z,3.47
2023-05-09T10:39:55.908Z,3.38
2023-05-09T10:42:23.736Z,3.20
2023-05-09T10:44:54.036Z,3.22
2023-05-09T10:47:21.604Z,3.75
2023-05-09T10:49:49.264Z,3.53
2023-05-09T10:52:16.774Z,3.90
2023-05-09T10:54:43.238Z,3.15
2023-05-09T10:57:09.764Z,3.22
2023-05-09T10:59:41.808Z,3.38
2023-05-09T11:02:18.932Z,3.30
2023-05-09T11:04:45.578Z,3.00
2023-05-09T11:07:27.653Z,2.90
2023-05-09T11:10:14.730Z,3.00
2023-05-09T11:12:58.679Z,2.80
2023-05-09T11:15:26.509Z,2.97
2023-05-09T11:18:13.248Z,2.70
2023-05-09T11:20:44.608Z,2.88
2023-05-09T11:23:17.174Z,2.78
2023-05-09T11:25:46.631Z,3.10
2023-05-09T11:28:28.134Z,2.80
2023-05-09T11:31:09.210Z,3.25
2023-05-09T11:33:37.234Z,3.30
2023-05-09T11:36:25.368Z,2.95
2023-05-09T11:39:06.121Z,2.35
2023-05-09T11:41:53.471Z,2.97
2023-05-09T11:44:21.145Z,2.60
2023-05-09T11:46:49.262Z,2.60
2023-05-09T11:49:16.909Z,2.80
2023-05-09T11:51:43.514Z,2.97
2023-05-09T11:54:11.941Z,3.67
2023-05-09T11:56:40.749Z,3.30
2023-05-09T11:59:07.793Z,3.67
2023-05-09T12:01:35.848Z,3.80
2023-05-09T12:04:02.742Z,3.97
2023-05-09T12:06:30.019Z,3.95
2023-05-09T12:08:59.673Z,3.72
2023-05-09T12:11:26.179Z,3.33
2023-05-09T12:13:52.929Z,3.63
2023-05-09T12:16:20.504Z,3.72
2023-05-09T12:18:52.511Z,3.83
2023-05-09T12:21:20.556Z,3.55
2023-05-09T12:23:50.653Z,3.30
2023-05-09T12:26:17.581Z,2.50
2023-05-09T12:28:44.127Z,3.15
2023-05-09T12:31:11.401Z,3.78
2023-05-09T12:33:38.913Z,3.67
2023-05-09T12:36:11.880Z,3.03
2023-05-09T12:38:39.712Z,3.35
2023-05-09T12:41:18.251Z,3.83
2023-05-09T12:43:55.701Z,3.50
2023-05-09T12:46:22.153Z,3.03
2023-05-09T12:48:49.372Z,3.17
2023-05-09T12:51:20.528Z,3.20
2023-05-09T12:53:47.384Z,3.05
2023-05-09T12:56:16.464Z,3.00
2023-05-09T12:58:51.560Z,3.97
2023-05-09T13:01:19.450Z,4.15
2023-05-09T13:03:52.270Z,5.47
2023-05-09T13:06:19.117Z,5.40
2023-05-09T13:08:57.351Z,4.90
2023-05-09T13:11:24.306Z,5.85
2023-05-09T13:13:50.778Z,5.15
2023-05-09T13:16:17.911Z,5.80
2023-05-09T13:18:44.605Z,6.03
2023-05-09T13:21:11.063Z,6.07
2023-05-09T13:23:37.547Z,6.13
2023-05-09T13:26:03.986Z,6.78
2023-05-09T13:28:30.399Z,7.03
2023-05-09T13:30:56.916Z,7.75
2023-05-09T13:33:26.249Z,7.80
2023-05-09T13:35:53.462Z,7.03
2023-05-09T13:38:19.840Z,7.57
2023-05-09T13:40:46.555Z,7.72
2023-05-09T13:43:12.956Z,8.07
2023-05-09T13:45:39.421Z,7.85
2023-05-09T13:48:06.149Z,7.93
2023-05-09T13:50:32.662Z,8.23
2023-05-09T13:52:59.233Z,7.40
2023-05-09T13:55:27.233Z,7.15
2023-05-09T13:57:53.637Z,6.75
2023-05-09T14:00:21.327Z,7.05
2023-05-09T14:02:48.252Z,7.82
2023-05-09T14:05:14.765Z,7.10
2023-05-09T14:07:41.146Z,7.70
2023-05-09T14:10:11.919Z,7.00
2023-05-09T14:12:39.637Z,6.85
2023-05-09T14:15:09.515Z,6.70
2023-05-09T14:17:36.061Z,7.10
2023-05-09T14:20:02.485Z,6.75
2023-05-09T14:22:28.981Z,6.57
2023-05-09T14:24:57.151Z,7.40
2023-05-09T14:27:23.768Z,6.50
2023-05-09T14:29:50.421Z,6.57
2023-05-09T14:32:17.355Z,6.63
2023-05-09T14:34:43.940Z,6.75
2023-05-09T14:37:13.793Z,6.15
2023-05-09T14:39:41.925Z,5.75
2023-05-09T14:42:11.230Z,5.93
2023-05-09T14:44:38.438Z,5.97
2023-05-09T14:47:05.081Z,5.15
2023-05-09T14:49:31.890Z,5.30
2023-05-09T14:51:58.419Z,4.93
2023-05-09T14:54:24.935Z,4.53
2023-05-09T14:56:51.396Z,4.40
2023-05-09T14:59:18.028Z,4.35
2023-05-09T15:01:45.564Z,4.40
2023-05-09T15:04:12.093Z,4.63
2023-05-09T15:06:38.655Z,4.05
2023-05-09T15:09:05.097Z,3.90
2023-05-09T15:11:43.290Z,4.30
2023-05-09T15:14:13.879Z,3.55
2023-05-09T15:16:40.494Z,3.40
2023-05-09T15:19:08.032Z,3.33
2023-05-09T15:21:34.992Z,3.65
2023-05-09T15:24:02.258Z,3.20
2023-05-09T15:26:29.159Z,3.72
2023-05-09T15:28:55.601Z,3.60
2023-05-09T15:31:23.246Z,3.33
2023-05-09T15:33:49.664Z,3.20
2023-05-09T15:36:16.356Z,3.67
2023-05-09T15:38:42.929Z,3.63
2023-05-09T15:41:09.444Z,3.20
2023-05-09T15:43:35.955Z,3.40
2023-05-09T15:46:02.483Z,3.30
2023-05-09T15:48:28.906Z,3.53
2023-05-09T15:50:55.609Z,3.05
2023-05-09T15:53:23.099Z,3.42
2023-05-09T15:55:49.873Z,3.63
2023-05-09T15:58:16.458Z,4.03
2023-05-09T16:00:42.950Z,3.67
2023-05-09T16:03:09.488Z,3.63
2023-05-09T16:05:35.979Z,3.88
2023-05-09T16:08:02.425Z,4.30
2023-05-09T16:10:28.890Z,4.07
2023-05-09T16:12:55.438Z,4.07
2023-05-09T16:15:21.839Z,3.83
2023-05-09T16:17:48.247Z,3.92
2023-05-09T16:20:15.178Z,4.22
2023-05-09T16:22:42.434Z,3.70
2023-05-09T16:25:09.250Z,4.13
2023-05-09T16:27:35.801Z,3.70
2023-05-09T16:30:02.897Z,3.75
2023-05-09T16:32:29.295Z,3.50
2023-05-09T16:34:55.994Z,3.45
2023-05-09T16:37:23.390Z,3.80
2023-05-09T16:39:49.980Z,3.80
2023-05-09T16:42:16.538Z,4.13
2023-05-09T16:44:42.968Z,3.17
2023-05-09T16:47:09.387Z,2.78
2023-05-09T16:49:35.912Z,2.42
2023-05-09T16:52:02.278Z,3.10
2023-05-09T16:54:31.110Z,2.60
2023-05-09T16:56:57.608Z,2.50
2023-05-09T16:59:24.009Z,2.33
2023-05-09T17:01:50.522Z,2.40
2023-05-09T17:04:17.129Z,2.75
2023-05-09T17:06:43.598Z,2.75
2023-05-09T17:09:10.012Z,2.40
2023-05-09T17:11:36.588Z,2.20
2023-05-09T17:14:03.407Z,1.98
2023-05-09T17:16:29.928Z,2.00
2023-05-09T17:18:56.514Z,1.92
2023-05-09T17:21:22.965Z,2.45
2023-05-09T17:23:49.411Z,2.03
2023-05-09T17:26:15.906Z,2.33
2023-05-09T17:28:42.302Z,2.47
2023-05-09T17:31:08.734Z,2.78
2023-05-09T17:33:35.253Z,2.60
2023-05-09T17:36:01.693Z,2.90
2023-05-09T17:38:28.288Z,2.05
2023-05-09T17:40:54.803Z,2.42
2023-05-09T17:43:22.143Z,2.10
2023-05-09T17:45:48.688Z,2.33
2023-05-09T17:48:15.822Z,2.85
2023-05-09T17:50:43.717Z,2.70
2023-05-09T17:53:10.522Z,2.40
2023-05-09T17:55:37.046Z,2.67
2023-05-09T17:58:03.484Z,2.60
2023-05-09T18:00:30.127Z,2.50
2023-05-09T18:03:00.843Z,2.78
2023-05-09T18:05:27.618Z,2.88
2023-05-09T18:07:54.162Z,2.13
2023-05-09T18:10:20.789Z,2.58
2023-05-09T18:12:47.345Z,2.58
2023-05-09T18:15:14.146Z,2.60
2023-05-09T18:17:40.607Z,2.63
2023-05-09T18:20:08.462Z,2.85
2023-05-09T18:22:34.982Z,3.40
2023-05-09T18:25:01.888Z,3.10
2023-05-09T18:27:28.307Z,3.35
2023-05-09T18:29:54.837Z,3.50
2023-05-09T18:32:21.839Z,3.00
2023-05-09T18:34:48.477Z,3.20
2023-05-09T18:37:16.446Z,3.10
2023-05-09T18:39:42.985Z,2.97
2023-05-09T18:42:09.379Z,2.70
2023-05-09T18:44:36.524Z,2.10
2023-05-09T18:47:03.008Z,2.70
2023-05-09T18:49:29.884Z,2.67
2023-05-09T18:51:56.610Z,2.28
2023-05-09T18:54:23.607Z,1.80
2023-05-09T18:56:50.278Z,2.17
2023-05-09T18:59:17.338Z,2.33
2023-05-09T19:01:44.043Z,2.40
2023-05-09T19:04:10.837Z,2.10
2023-05-09T19:06:37.494Z,1.85
2023-05-09T19:09:04.298Z,2.35
2023-05-09T19:11:30.829Z,2.00
2023-05-09T19:13:57.430Z,1.70
2023-05-09T19:16:24.817Z,1.98
2023-05-09T19:18:51.290Z,1.95
2023-05-09T19:21:18.750Z,2.17
2023-05-09T19:23:48.963Z,2.05
2023-05-09T19:26:16.483Z,2.13
2023-05-09T19:28:43.113Z,2.20
2023-05-09T19:31:09.988Z,2.88
2023-05-09T19:33:36.756Z,2.53
2023-05-09T19:36:03.509Z,2.22
2023-05-09T19:38:31.347Z,2.58
2023-05-09T19:40:59.135Z,12.77
2023-05-09T19:43:25.753Z,6.15
2023-05-09T19:45:52.176Z,3.10
2023-05-09T19:48:18.630Z,2.20
2023-05-09T19:50:45.970Z,3.25
2023-05-09T19:53:12.724Z,3.67
2023-05-09T19:55:39.308Z,3.65
2023-05-09T19:58:05.874Z,3.08
2023-05-09T20:00:32.396Z,2.70
2023-05-09T20:02:59.008Z,1.83
2023-05-09T20:05:27.225Z,2.20
2023-05-09T20:07:53.764Z,2.35
2023-05-09T20:10:20.885Z,1.98
2023-05-09T20:12:47.606Z,1.60
2023-05-09T20:15:14.091Z,4.13
2023-05-09T20:17:40.656Z,1.90
2023-05-09T20:20:07.713Z,1.70
2023-05-09T20:22:34.107Z,1.73
2023-05-09T20:25:00.562Z,1.50
2023-05-09T20:27:27.144Z,1.50
2023-05-09T20:29:53.777Z,2.67
2023-05-09T20:32:22.249Z,1.85
2023-05-09T20:34:48.709Z,2.30
2023-05-09T20:37:15.947Z,2.03
2023-05-09T20:39:42.446Z,1.70
2023-05-09T20:42:08.981Z,1.10
2023-05-09T20:44:35.429Z,1.00
2023-05-09T20:47:01.849Z,0.70
2023-05-09T20:49:28.350Z,0.85
2023-05-09T20:51:55.232Z,0.60
2023-05-09T20:54:23.872Z,0.60
2023-05-09T20:56:50.548Z,0.60
2023-05-09T20:59:17.468Z,0.50
2023-05-09T21:01:43.981Z,0.50
2023-05-09T21:04:10.415Z,0.40
2023-05-09T21:06:37.111Z,0.30
2023-05-09T21:09:05.650Z,0.40
2023-05-09T21:11:32.144Z,0.40
2023-05-09T21:13:58.631Z,0.40
2023-05-09T21:16:25.231Z,0.30
2023-05-09T21:18:51.745Z,0.30
2023-05-09T21:21:18.185Z,0.43
2023-05-09T21:23:44.623Z,0.38
2023-05-09T21:26:11.109Z,0.30
2023-05-09T21:28:37.525Z,0.30
2023-05-09T21:31:04.157Z,0.40
2023-05-09T21:33:30.947Z,0.40
2023-05-09T21:35:58.584Z,0.40
2023-05-09T21:38:25.157Z,0.30
2023-05-09T21:40:51.727Z,0.32
2023-05-09T21:43:18.319Z,0.38
2023-05-09T21:45:45.726Z,0.30
2023-05-09T21:48:12.255Z,0.40
2023-05-09T21:50:38.877Z,0.40
2023-05-09T21:53:05.455Z,0.38
2023-05-09T21:55:31.931Z,0.60
2023-05-09T21:57:58.404Z,0.50
2023-05-09T22:00:24.838Z,0.60
2023-05-09T22:02:51.453Z,0.50
2023-05-09T22:05:18.026Z,0.60
2023-05-09T22:07:44.498Z,0.60
2023-05-09T22:10:11.192Z,0.60
2023-05-09T22:12:38.052Z,0.55
2023-05-09T22:15:05.360Z,0.63
2023-05-09T22:17:31.873Z,0.80
2023-05-09T22:19:58.433Z,0.65
2023-05-09T22:22:24.879Z,0.65
2023-05-09T22:24:51.397Z,1.05
2023-05-09T22:27:18.044Z,0.90
2023-05-09T22:29:45.623Z,0.55
2023-05-09T22:32:12.357Z,0.73
2023-05-09T22:34:39.375Z,0.90
2023-05-09T22:37:06.159Z,1.00
2023-05-09T22:39:32.744Z,0.82
2023-05-09T22:41:59.195Z,0.93
2023-05-09T22:44:25.617Z,0.90
2023-05-09T22:46:52.141Z,0.88
2023-05-09T22:49:18.661Z,1.27
2023-05-09T22:51:45.061Z,1.20
2023-05-09T22:54:11.550Z,1.08
2023-05-09T22:56:37.936Z,1.20
2023-05-09T22:59:04.504Z,1.10
2023-05-09T23:01:31.258Z,1.10
2023-05-09T23:03:57.692Z,1.20
2023-05-09T23:06:24.139Z,1.17
2023-05-09T23:08:50.572Z,1.10
2023-05-09T23:11:16.980Z,1.40
2023-05-09T23:13:43.491Z,1.15
2023-05-09T23:16:10.188Z,1.27
2023-05-09T23:18:36.596Z,1.20
2023-05-09T23:21:04.539Z,1.05
2023-05-09T23:23:30.956Z,1.30
2023-05-09T23:25:57.424Z,1.40
2023-05-09T23:28:25.203Z,1.50
2023-05-09T23:30:53.483Z,1.40
2023-05-09T23:33:20.453Z,1.48
2023-05-09T23:35:47.792Z,1.30
2023-05-09T23:38:14.269Z,1.20
2023-05-09T23:40:44.247Z,1.30
2023-05-09T23:43:10.724Z,1.10
2023-05-09T23:45:37.144Z,1.40
2023-05-09T23:48:04.383Z,1.25
2023-05-09T23:50:31.196Z,1.27
2023-05-09T23:52:57.656Z,1.08
2023-05-09T23:55:24.101Z,1.10
2023-05-09T23:57:50.631Z,0.93
